sensor_id;sensor_type;location;lat;lon;timestamp;P1;durP1;ratioP1;P2;durP2;ratioP2
37937;SDS011;23763;48.130;11.602;2024-03-23T00:53:42;7.22;;;6.47;;
37937;SDS011;23763;48.130;11.602;2024-03-23T00:56:08;6.85;;;6.35;;
37937;SDS011;23763;48.130;11.602;2024-03-23T00:58:33;6.75;;;6.25;;
37937;SDS011;23763;48.130;11.602;2024-03-23T01:01:00;6.60;;;6.13;;
37937;SDS011;23763;48.130;11.602;2024-03-23T01:03:25;6.50;;;6.10;;
37937;SDS011;23763;48.130;11.602;2024-03-23T01:05:51;5.97;;;5.68;;
37937;SDS011;23763;48.130;11.602;2024-03-23T01:08:19;6.60;;;6.20;;
37937;SDS011;23763;48.130;11.602;2024-03-23T01:10:53;6.50;;;6.10;;
37937;SDS011;23763;48.130;11.602;2024-03-23T01:13:26;6.22;;;5.82;;
37937;SDS011;23763;48.130;11.602;2024-03-23T01:15:53;6.28;;;5.85;;
37937;SDS011;23763;48.130;11.602;2024-03-23T01:18:21;5.82;;;5.43;;
37937;SDS011;23763;48.130;11.602;2024-03-23T01:20:47;5.85;;;5.55;;
37937;SDS011;23763;48.130;11.602;2024-03-23T01:23:13;6.70;;;6.10;;
37937;SDS011;23763;48.130;11.602;2024-03-23T01:25:39;6.15;;;5.85;;
37937;SDS011;23763;48.130;11.602;2024-03-23T01:28:05;6.47;;;5.97;;
37937;SDS011;23763;48.130;11.602;2024-03-23T01:30:31;5.90;;;5.60;;
37937;SDS011;23763;48.130;11.602;2024-03-23T01:32:57;5.90;;;5.50;;
37937;SDS011;23763;48.130;11.602;2024-03-23T01:35:23;5.85;;;5.45;;
37937;SDS011;23763;48.130;11.602;2024-03-23T01:37:49;5.55;;;5.35;;
37937;SDS011;23763;48.130;11.602;2024-03-23T01:40:16;5.88;;;5.47;;
37937;SDS011;23763;48.130;11.602;2024-03-23T01:42:42;6.25;;;5.85;;
37937;SDS011;23763;48.130;11.602;2024-03-23T01:45:07;5.38;;;5.07;;
37937;SDS011;23763;48.130;11.602;2024-03-23T01:47:34;6.00;;;5.50;;
37937;SDS011;23763;48.130;11.602;2024-03-23T01:50:01;5.85;;;5.40;;
37937;SDS011;23763;48.130;11.602;2024-03-23T01:52:27;5.82;;;5.45;;
37937;SDS011;23763;48.130;11.602;2024-03-23T01:54:53;5.72;;;5.32;;
37937;SDS011;23763;48.130;11.602;2024-03-23T01:57:19;5.68;;;5.28;;
37937;SDS011;23763;48.130;11.602;2024-03-23T01:59:48;5.55;;;5.15;;
37937;SDS011;23763;48.130;11.602;2024-03-23T02:02:14;5.70;;;5.40;;
37937;SDS011;23763;48.130;11.602;2024-03-23T02:04:42;5.70;;;5.40;;
37937;SDS011;23763;48.130;11.602;2024-03-23T02:07:08;5.63;;;5.35;;
37937;SDS011;23763;48.130;11.602;2024-03-23T02:09:34;5.57;;;5.28;;
37937;SDS011;23763;48.130;11.602;2024-03-23T02:12:01;5.78;;;5.43;;
37937;SDS011;23763;48.130;11.602;2024-03-23T02:14:28;5.78;;;5.32;;
37937;SDS011;23763;48.130;11.602;2024-03-23T02:16:53;5.80;;;5.40;;
37937;SDS011;23763;48.130;11.602;2024-03-23T02:19:19;5.60;;;5.30;;
37937;SDS011;23763;48.130;11.602;2024-03-23T02:21:45;6.80;;;5.80;;
37937;SDS011;23763;48.130;11.602;2024-03-23T02:24:12;5.95;;;5.50;;
37937;SDS011;23763;48.130;11.602;2024-03-23T02:26:37;6.05;;;5.75;;
37937;SDS011;23763;48.130;11.602;2024-03-23T02:29:03;5.32;;;5.13;;
37937;SDS011;23763;48.130;11.602;2024-03-23T02:31:29;6.55;;;5.88;;
37937;SDS011;23763;48.130;11.602;2024-03-23T02:33:55;5.95;;;5.60;;
37937;SDS011;23763;48.130;11.602;2024-03-23T02:36:20;6.10;;;5.75;;
37937;SDS011;23763;48.130;11.602;2024-03-23T02:38:46;6.18;;;5.78;;
37937;SDS011;23763;48.130;11.602;2024-03-23T02:41:12;6.03;;;5.63;;
37937;SDS011;23763;48.130;11.602;2024-03-23T02:43:38;6.60;;;6.20;;
37937;SDS011;23763;48.130;11.602;2024-03-23T02:46:04;5.82;;;5.43;;
37937;SDS011;23763;48.130;11.602;2024-03-23T02:48:30;6.05;;;5.65;;
37937;SDS011;23763;48.130;11.602;2024-03-23T02:50:56;6.13;;;5.63;;
37937;SDS011;23763;48.130;11.602;2024-03-23T02:53:21;6.07;;;5.68;;
37937;SDS011;23763;48.130;11.602;2024-03-23T02:55:47;5.78;;;5.47;;
37937;SDS011;23763;48.130;11.602;2024-03-23T02:58:13;6.38;;;5.97;;
37937;SDS011;23763;48.130;11.602;2024-03-23T03:00:39;5.90;;;5.55;;
37937;SDS011;23763;48.130;11.602;2024-03-23T03:03:05;5.90;;;5.57;;
37937;SDS011;23763;48.130;11.602;2024-03-23T03:05:32;5.80;;;5.50;;
37937;SDS011;23763;48.130;11.602;2024-03-23T03:07:58;6.43;;;5.35;;
37937;SDS011;23763;48.130;11.602;2024-03-23T03:10:23;6.20;;;5.80;;
37937;SDS011;23763;48.130;11.602;2024-03-23T03:12:49;6.07;;;5.68;;
37937;SDS011;23763;48.130;11.602;2024-03-23T03:15:15;6.03;;;5.72;;
37937;SDS011;23763;48.130;11.602;2024-03-23T03:17:40;5.90;;;5.50;;
37937;SDS011;23763;48.130;11.602;2024-03-23T03:20:06;6.32;;;5.90;;
37937;SDS011;23763;48.130;11.602;2024-03-23T03:22:32;6.28;;;5.78;;
37937;SDS011;23763;48.130;11.602;2024-03-23T03:24:58;6.03;;;5.63;;
37937;SDS011;23763;48.130;11.602;2024-03-23T03:27:25;6.13;;;5.75;;
37937;SDS011;23763;48.130;11.602;2024-03-23T03:29:50;6.53;;;6.05;;
37937;SDS011;23763;48.130;11.602;2024-03-23T03:32:16;6.30;;;5.90;;
37937;SDS011;23763;48.130;11.602;2024-03-23T03:34:42;6.10;;;5.70;;
37937;SDS011;23763;48.130;11.602;2024-03-23T03:37:08;6.15;;;5.60;;
37937;SDS011;23763;48.130;11.602;2024-03-23T03:39:33;6.35;;;6.03;;
37937;SDS011;23763;48.130;11.602;2024-03-23T03:41:59;5.90;;;5.50;;
37937;SDS011;23763;48.130;11.602;2024-03-23T03:44:26;6.43;;;5.93;;
37937;SDS011;23763;48.130;11.602;2024-03-23T03:46:52;6.30;;;5.90;;
37937;SDS011;23763;48.130;11.602;2024-03-23T03:49:18;6.32;;;5.80;;
37937;SDS011;23763;48.130;11.602;2024-03-23T03:51:44;5.80;;;5.35;;
37937;SDS011;23763;48.130;11.602;2024-03-23T03:54:09;6.03;;;5.63;;
37937;SDS011;23763;48.130;11.602;2024-03-23T03:56:35;6.07;;;5.78;;
37937;SDS011;23763;48.130;11.602;2024-03-23T03:59:01;6.05;;;5.75;;
37937;SDS011;23763;48.130;11.602;2024-03-23T04:01:26;6.15;;;5.85;;
37937;SDS011;23763;48.130;11.602;2024-03-23T04:03:52;5.88;;;5.57;;
37937;SDS011;23763;48.130;11.602;2024-03-23T04:06:21;5.93;;;5.63;;
37937;SDS011;23763;48.130;11.602;2024-03-23T04:08:46;6.35;;;5.95;;
37937;SDS011;23763;48.130;11.602;2024-03-23T04:11:12;6.07;;;5.65;;
37937;SDS011;23763;48.130;11.602;2024-03-23T04:13:38;6.05;;;5.75;;
37937;SDS011;23763;48.130;11.602;2024-03-23T04:16:06;5.97;;;5.47;;
37937;SDS011;23763;48.130;11.602;2024-03-23T04:18:32;6.10;;;5.70;;
37937;SDS011;23763;48.130;11.602;2024-03-23T04:20:57;6.35;;;5.85;;
37937;SDS011;23763;48.130;11.602;2024-03-23T04:23:23;6.43;;;5.97;;
37937;SDS011;23763;48.130;11.602;2024-03-23T04:25:49;6.85;;;6.25;;
37937;SDS011;23763;48.130;11.602;2024-03-23T04:28:15;5.70;;;5.40;;
37937;SDS011;23763;48.130;11.602;2024-03-23T04:30:41;5.40;;;5.10;;
37937;SDS011;23763;48.130;11.602;2024-03-23T04:33:06;5.57;;;5.25;;
37937;SDS011;23763;48.130;11.602;2024-03-23T04:35:32;5.60;;;5.20;;
37937;SDS011;23763;48.130;11.602;2024-03-23T04:37:58;5.65;;;5.25;;
37937;SDS011;23763;48.130;11.602;2024-03-23T04:40:25;5.90;;;5.60;;
37937;SDS011;23763;48.130;11.602;2024-03-23T04:42:51;6.00;;;5.60;;
37937;SDS011;23763;48.130;11.602;2024-03-23T04:45:17;5.55;;;5.15;;
37937;SDS011;23763;48.130;11.602;2024-03-23T04:47:42;5.43;;;5.13;;
37937;SDS011;23763;48.130;11.602;2024-03-23T04:50:08;5.75;;;5.45;;
37937;SDS011;23763;48.130;11.602;2024-03-23T04:52:36;5.88;;;5.50;;
37937;SDS011;23763;48.130;11.602;2024-03-23T04:55:01;5.90;;;5.50;;
37937;SDS011;23763;48.130;11.602;2024-03-23T04:57:27;5.38;;;5.07;;
37937;SDS011;23763;48.130;11.602;2024-03-23T04:59:53;5.20;;;4.90;;
37937;SDS011;23763;48.130;11.602;2024-03-23T05:02:19;5.88;;;5.43;;
37937;SDS011;23763;48.130;11.602;2024-03-23T05:04:44;5.70;;;5.30;;
37937;SDS011;23763;48.130;11.602;2024-03-23T05:07:10;5.78;;;5.43;;
37937;SDS011;23763;48.130;11.602;2024-03-23T05:09:36;5.70;;;5.35;;
37937;SDS011;23763;48.130;11.602;2024-03-23T05:12:02;5.95;;;5.55;;
37937;SDS011;23763;48.130;11.602;2024-03-23T05:14:28;5.55;;;5.25;;
37937;SDS011;23763;48.130;11.602;2024-03-23T05:16:54;5.75;;;5.40;;
37937;SDS011;23763;48.130;11.602;2024-03-23T05:19:20;5.75;;;5.25;;
37937;SDS011;23763;48.130;11.602;2024-03-23T05:21:46;5.50;;;5.20;;
37937;SDS011;23763;48.130;11.602;2024-03-23T05:24:12;5.95;;;5.47;;
37937;SDS011;23763;48.130;11.602;2024-03-23T05:26:38;6.32;;;6.00;;
37937;SDS011;23763;48.130;11.602;2024-03-23T05:29:04;5.97;;;5.68;;
37937;SDS011;23763;48.130;11.602;2024-03-23T05:31:31;5.93;;;5.40;;
37937;SDS011;23763;48.130;11.602;2024-03-23T05:33:57;6.00;;;5.70;;
37937;SDS011;23763;48.130;11.602;2024-03-23T05:36:23;5.40;;;5.10;;
37937;SDS011;23763;48.130;11.602;2024-03-23T05:38:49;5.20;;;4.93;;
37937;SDS011;23763;48.130;11.602;2024-03-23T05:41:15;6.20;;;5.80;;
37937;SDS011;23763;48.130;11.602;2024-03-23T05:43:41;5.68;;;5.38;;
37937;SDS011;23763;48.130;11.602;2024-03-23T05:46:07;5.80;;;5.45;;
37937;SDS011;23763;48.130;11.602;2024-03-23T05:48:33;5.57;;;5.20;;
37937;SDS011;23763;48.130;11.602;2024-03-23T05:50:59;6.10;;;5.60;;
37937;SDS011;23763;48.130;11.602;2024-03-23T05:53:25;5.60;;;5.30;;
37937;SDS011;23763;48.130;11.602;2024-03-23T05:55:51;5.57;;;5.10;;
37937;SDS011;23763;48.130;11.602;2024-03-23T05:58:24;5.50;;;5.20;;
37937;SDS011;23763;48.130;11.602;2024-03-23T06:00:56;5.90;;;5.50;;
37937;SDS011;23763;48.130;11.602;2024-03-23T06:03:26;5.95;;;5.55;;
37937;SDS011;23763;48.130;11.602;2024-03-23T06:05:52;6.68;;;6.28;;
37937;SDS011;23763;48.130;11.602;2024-03-23T06:08:19;6.15;;;5.85;;
37937;SDS011;23763;48.130;11.602;2024-03-23T06:10:48;6.00;;;5.50;;
37937;SDS011;23763;48.130;11.602;2024-03-23T06:13:15;5.70;;;5.28;;
37937;SDS011;23763;48.130;11.602;2024-03-23T06:15:42;5.50;;;5.10;;
37937;SDS011;23763;48.130;11.602;2024-03-23T06:18:08;5.82;;;5.50;;
37937;SDS011;23763;48.130;11.602;2024-03-23T06:20:33;5.80;;;5.40;;
37937;SDS011;23763;48.130;11.602;2024-03-23T06:23:00;5.28;;;4.97;;
37937;SDS011;23763;48.130;11.602;2024-03-23T06:25:27;5.80;;;5.50;;
37937;SDS011;23763;48.130;11.602;2024-03-23T06:27:52;5.63;;;5.22;;
37937;SDS011;23763;48.130;11.602;2024-03-23T06:30:18;5.85;;;5.45;;
37937;SDS011;23763;48.130;11.602;2024-03-23T06:32:44;5.82;;;5.53;;
37937;SDS011;23763;48.130;11.602;2024-03-23T06:35:09;5.60;;;5.30;;
37937;SDS011;23763;48.130;11.602;2024-03-23T06:37:35;5.63;;;5.38;;
37937;SDS011;23763;48.130;11.602;2024-03-23T06:40:02;5.88;;;5.57;;
37937;SDS011;23763;48.130;11.602;2024-03-23T06:42:30;5.63;;;5.10;;
37937;SDS011;23763;48.130;11.602;2024-03-23T06:44:55;5.55;;;5.15;;
37937;SDS011;23763;48.130;11.602;2024-03-23T06:47:21;6.20;;;5.80;;
37937;SDS011;23763;48.130;11.602;2024-03-23T06:49:47;5.57;;;5.28;;
37937;SDS011;23763;48.130;11.602;2024-03-23T06:52:13;5.50;;;5.20;;
37937;SDS011;23763;48.130;11.602;2024-03-23T06:54:39;5.50;;;5.20;;
37937;SDS011;23763;48.130;11.602;2024-03-23T06:57:04;5.80;;;5.50;;
37937;SDS011;23763;48.130;11.602;2024-03-23T06:59:30;5.50;;;5.30;;
37937;SDS011;23763;48.130;11.602;2024-03-23T07:01:56;5.57;;;5.18;;
37937;SDS011;23763;48.130;11.602;2024-03-23T07:04:21;5.68;;;5.28;;
37937;SDS011;23763;48.130;11.602;2024-03-23T07:06:47;5.80;;;5.50;;
37937;SDS011;23763;48.130;11.602;2024-03-23T07:09:13;5.70;;;5.35;;
37937;SDS011;23763;48.130;11.602;2024-03-23T07:11:39;5.60;;;5.20;;
37937;SDS011;23763;48.130;11.602;2024-03-23T07:14:04;5.47;;;5.18;;
37937;SDS011;23763;48.130;11.602;2024-03-23T07:16:30;5.28;;;5.03;;
37937;SDS011;23763;48.130;11.602;2024-03-23T07:18:56;5.68;;;5.28;;
37937;SDS011;23763;48.130;11.602;2024-03-23T07:21:22;5.80;;;5.35;;
37937;SDS011;23763;48.130;11.602;2024-03-23T07:24:00;5.65;;;5.35;;
37937;SDS011;23763;48.130;11.602;2024-03-23T07:26:26;6.25;;;5.85;;
37937;SDS011;23763;48.130;11.602;2024-03-23T07:28:51;5.97;;;5.55;;
37937;SDS011;23763;48.130;11.602;2024-03-23T07:31:18;7.20;;;5.80;;
37937;SDS011;23763;48.130;11.602;2024-03-23T07:33:48;5.65;;;5.35;;
37937;SDS011;23763;48.130;11.602;2024-03-23T07:36:14;5.90;;;5.40;;
37937;SDS011;23763;48.130;11.602;2024-03-23T07:38:40;5.30;;;5.00;;
37937;SDS011;23763;48.130;11.602;2024-03-23T07:41:17;5.90;;;5.45;;
37937;SDS011;23763;48.130;11.602;2024-03-23T07:43:44;5.65;;;5.28;;
37937;SDS011;23763;48.130;11.602;2024-03-23T07:46:10;5.78;;;5.47;;
37937;SDS011;23763;48.130;11.602;2024-03-23T07:48:37;6.18;;;5.63;;
37937;SDS011;23763;48.130;11.602;2024-03-23T07:51:07;5.88;;;5.47;;
37937;SDS011;23763;48.130;11.602;2024-03-23T07:53:34;5.55;;;5.25;;
37937;SDS011;23763;48.130;11.602;2024-03-23T07:56:02;6.32;;;5.88;;
37937;SDS011;23763;48.130;11.602;2024-03-23T07:58:33;6.15;;;5.85;;
37937;SDS011;23763;48.130;11.602;2024-03-23T08:01:03;6.32;;;5.95;;
37937;SDS011;23763;48.130;11.602;2024-03-23T08:03:34;6.15;;;5.65;;
37937;SDS011;23763;48.130;11.602;2024-03-23T08:06:18;5.82;;;5.53;;
37937;SDS011;23763;48.130;11.602;2024-03-23T08:08:46;6.45;;;5.88;;
37937;SDS011;23763;48.130;11.602;2024-03-23T08:11:12;6.00;;;5.70;;
37937;SDS011;23763;48.130;11.602;2024-03-23T08:13:39;6.07;;;5.78;;
37937;SDS011;23763;48.130;11.602;2024-03-23T08:16:06;6.30;;;5.90;;
37937;SDS011;23763;48.130;11.602;2024-03-23T08:18:32;6.20;;;5.90;;
37937;SDS011;23763;48.130;11.602;2024-03-23T08:21:02;6.13;;;5.82;;
37937;SDS011;23763;48.130;11.602;2024-03-23T08:23:29;6.55;;;5.97;;
37937;SDS011;23763;48.130;11.602;2024-03-23T08:25:59;6.55;;;6.15;;
37937;SDS011;23763;48.130;11.602;2024-03-23T08:28:26;6.55;;;6.20;;
37937;SDS011;23763;48.130;11.602;2024-03-23T08:30:52;6.82;;;6.18;;
37937;SDS011;23763;48.130;11.602;2024-03-23T08:33:19;5.82;;;5.50;;
37937;SDS011;23763;48.130;11.602;2024-03-23T08:36:06;6.53;;;6.13;;
37937;SDS011;23763;48.130;11.602;2024-03-23T08:38:32;6.82;;;6.28;;
37937;SDS011;23763;48.130;11.602;2024-03-23T08:43:28;6.40;;;6.07;;
37937;SDS011;23763;48.130;11.602;2024-03-23T08:46:06;6.75;;;6.32;;
37937;SDS011;23763;48.130;11.602;2024-03-23T08:48:38;7.22;;;6.78;;
37937;SDS011;23763;48.130;11.602;2024-03-23T08:51:04;6.82;;;6.43;;
37937;SDS011;23763;48.130;11.602;2024-03-23T08:53:31;7.20;;;6.70;;
37937;SDS011;23763;48.130;11.602;2024-03-23T08:55:58;5.80;;;5.50;;
37937;SDS011;23763;48.130;11.602;2024-03-23T08:58:26;6.53;;;6.10;;
37937;SDS011;23763;48.130;11.602;2024-03-23T09:00:53;5.90;;;5.50;;
37937;SDS011;23763;48.130;11.602;2024-03-23T09:03:21;6.22;;;5.93;;
37937;SDS011;23763;48.130;11.602;2024-03-23T09:05:51;6.50;;;6.10;;
37937;SDS011;23763;48.130;11.602;2024-03-23T09:08:17;6.50;;;6.00;;
37937;SDS011;23763;48.130;11.602;2024-03-23T09:10:43;7.22;;;6.72;;
37937;SDS011;23763;48.130;11.602;2024-03-23T09:13:09;7.20;;;6.80;;
37937;SDS011;23763;48.130;11.602;2024-03-23T09:15:35;6.95;;;6.55;;
37937;SDS011;23763;48.130;11.602;2024-03-23T09:18:02;7.38;;;6.90;;
37937;SDS011;23763;48.130;11.602;2024-03-23T09:20:28;7.07;;;6.68;;
37937;SDS011;23763;48.130;11.602;2024-03-23T09:22:57;7.18;;;6.78;;
37937;SDS011;23763;48.130;11.602;2024-03-23T09:25:23;6.65;;;6.25;;
37937;SDS011;23763;48.130;11.602;2024-03-23T09:27:49;7.15;;;6.72;;
37937;SDS011;23763;48.130;11.602;2024-03-23T09:30:15;7.32;;;6.93;;
37937;SDS011;23763;48.130;11.602;2024-03-23T09:32:42;8.32;;;7.72;;
37937;SDS011;23763;48.130;11.602;2024-03-23T09:35:09;7.60;;;7.20;;
37937;SDS011;23763;48.130;11.602;2024-03-23T09:37:35;7.70;;;7.30;;
37937;SDS011;23763;48.130;11.602;2024-03-23T09:40:01;7.15;;;6.75;;
37937;SDS011;23763;48.130;11.602;2024-03-23T09:42:28;7.15;;;6.65;;
37937;SDS011;23763;48.130;11.602;2024-03-23T09:44:54;6.60;;;6.30;;
37937;SDS011;23763;48.130;11.602;2024-03-23T09:47:23;7.18;;;6.68;;
37937;SDS011;23763;48.130;11.602;2024-03-23T09:49:50;7.03;;;6.63;;
37937;SDS011;23763;48.130;11.602;2024-03-23T09:52:16;6.22;;;5.93;;
37937;SDS011;23763;48.130;11.602;2024-03-23T09:54:42;6.50;;;6.07;;
37937;SDS011;23763;48.130;11.602;2024-03-23T09:57:08;6.20;;;5.88;;
37937;SDS011;23763;48.130;11.602;2024-03-23T09:59:34;6.60;;;6.15;;
37937;SDS011;23763;48.130;11.602;2024-03-23T10:02:01;6.22;;;5.82;;
37937;SDS011;23763;48.130;11.602;2024-03-23T10:04:36;6.32;;;6.03;;
37937;SDS011;23763;48.130;11.602;2024-03-23T10:07:13;6.43;;;6.10;;
37937;SDS011;23763;48.130;11.602;2024-03-23T10:09:39;6.20;;;5.68;;
37937;SDS011;23763;48.130;11.602;2024-03-23T10:12:09;5.75;;;5.30;;
37937;SDS011;23763;48.130;11.602;2024-03-23T10:14:35;5.43;;;5.22;;
37937;SDS011;23763;48.130;11.602;2024-03-23T10:17:20;6.13;;;5.82;;
37937;SDS011;23763;48.130;11.602;2024-03-23T10:19:51;6.10;;;5.65;;
37937;SDS011;23763;48.130;11.602;2024-03-23T10:22:21;5.25;;;4.95;;
37937;SDS011;23763;48.130;11.602;2024-03-23T10:24:52;6.03;;;5.82;;
37937;SDS011;23763;48.130;11.602;2024-03-23T10:27:19;5.07;;;4.88;;
37937;SDS011;23763;48.130;11.602;2024-03-23T10:29:46;5.78;;;5.47;;
37937;SDS011;23763;48.130;11.602;2024-03-23T10:32:13;5.50;;;5.22;;
37937;SDS011;23763;48.130;11.602;2024-03-23T10:34:40;6.00;;;5.60;;
37937;SDS011;23763;48.130;11.602;2024-03-23T10:37:06;5.55;;;5.30;;
37937;SDS011;23763;48.130;11.602;2024-03-23T10:39:34;5.78;;;5.47;;
37937;SDS011;23763;48.130;11.602;2024-03-23T10:42:08;5.40;;;5.20;;
37937;SDS011;23763;48.130;11.602;2024-03-23T10:44:37;5.43;;;5.13;;
37937;SDS011;23763;48.130;11.602;2024-03-23T10:47:04;5.25;;;4.95;;
37937;SDS011;23763;48.130;11.602;2024-03-23T10:49:33;5.28;;;5.07;;
37937;SDS011;23763;48.130;11.602;2024-03-23T10:52:02;5.13;;;4.82;;
37937;SDS011;23763;48.130;11.602;2024-03-23T10:54:32;5.03;;;4.82;;
37937;SDS011;23763;48.130;11.602;2024-03-23T10:59:55;4.90;;;4.60;;
37937;SDS011;23763;48.130;11.602;2024-03-23T11:02:22;5.07;;;4.88;;
37937;SDS011;23763;48.130;11.602;2024-03-23T11:04:48;4.50;;;4.40;;
37937;SDS011;23763;48.130;11.602;2024-03-23T11:09:53;4.45;;;4.25;;
37937;SDS011;23763;48.130;11.602;2024-03-23T11:14:48;4.70;;;4.50;;
37937;SDS011;23763;48.130;11.602;2024-03-23T11:17:19;4.80;;;4.60;;
37937;SDS011;23763;48.130;11.602;2024-03-23T11:25:03;4.45;;;4.25;;
37937;SDS011;23763;48.130;11.602;2024-03-23T11:27:37;5.47;;;5.18;;
37937;SDS011;23763;48.130;11.602;2024-03-23T11:30:10;4.65;;;4.50;;
37937;SDS011;23763;48.130;11.602;2024-03-23T11:32:36;5.05;;;4.75;;
37937;SDS011;23763;48.130;11.602;2024-03-23T11:35:02;4.90;;;4.60;;
37937;SDS011;23763;48.130;11.602;2024-03-23T11:37:28;4.60;;;4.40;;
37937;SDS011;23763;48.130;11.602;2024-03-23T11:39:54;5.30;;;4.88;;
37937;SDS011;23763;48.130;11.602;2024-03-23T11:42:20;5.18;;;4.93;;
37937;SDS011;23763;48.130;11.602;2024-03-23T11:44:46;4.35;;;4.25;;
37937;SDS011;23763;48.130;11.602;2024-03-23T11:47:12;5.30;;;4.88;;
37937;SDS011;23763;48.130;11.602;2024-03-23T11:49:38;5.47;;;5.00;;
37937;SDS011;23763;48.130;11.602;2024-03-23T11:52:06;5.43;;;5.03;;
37937;SDS011;23763;48.130;11.602;2024-03-23T11:54:32;4.72;;;4.50;;
37937;SDS011;23763;48.130;11.602;2024-03-23T11:57:03;5.10;;;4.80;;
37937;SDS011;23763;48.130;11.602;2024-03-23T11:59:39;4.75;;;4.40;;
37937;SDS011;23763;48.130;11.602;2024-03-23T12:02:14;4.85;;;4.45;;
37937;SDS011;23763;48.130;11.602;2024-03-23T12:04:43;4.72;;;4.43;;
37937;SDS011;23763;48.130;11.602;2024-03-23T12:07:10;4.63;;;4.40;;
37937;SDS011;23763;48.130;11.602;2024-03-23T12:09:45;4.57;;;4.28;;
37937;SDS011;23763;48.130;11.602;2024-03-23T12:12:15;4.90;;;4.60;;
37937;SDS011;23763;48.130;11.602;2024-03-23T12:14:43;5.32;;;5.05;;
37937;SDS011;23763;48.130;11.602;2024-03-23T12:17:12;5.25;;;4.97;;
37937;SDS011;23763;48.130;11.602;2024-03-23T12:19:39;5.70;;;5.10;;
37937;SDS011;23763;48.130;11.602;2024-03-23T12:22:06;5.15;;;4.88;;
37937;SDS011;23763;48.130;11.602;2024-03-23T12:24:33;5.93;;;5.30;;
37937;SDS011;23763;48.130;11.602;2024-03-23T12:27:03;5.60;;;5.25;;
37937;SDS011;23763;48.130;11.602;2024-03-23T12:29:30;5.20;;;4.90;;
37937;SDS011;23763;48.130;11.602;2024-03-23T12:31:59;5.57;;;5.28;;
37937;SDS011;23763;48.130;11.602;2024-03-23T12:34:26;5.60;;;5.30;;
37937;SDS011;23763;48.130;11.602;2024-03-23T12:36:52;6.15;;;5.60;;
37937;SDS011;23763;48.130;11.602;2024-03-23T12:39:18;6.50;;;6.00;;
37937;SDS011;23763;48.130;11.602;2024-03-23T12:41:46;6.13;;;5.63;;
37937;SDS011;23763;48.130;11.602;2024-03-23T12:44:12;6.25;;;5.75;;
37937;SDS011;23763;48.130;11.602;2024-03-23T12:46:38;5.70;;;5.30;;
37937;SDS011;23763;48.130;11.602;2024-03-23T12:49:04;5.55;;;5.25;;
37937;SDS011;23763;48.130;11.602;2024-03-23T12:51:31;6.18;;;5.63;;
37937;SDS011;23763;48.130;11.602;2024-03-23T12:53:57;6.63;;;5.50;;
37937;SDS011;23763;48.130;11.602;2024-03-23T12:56:23;5.78;;;5.38;;
37937;SDS011;23763;48.130;11.602;2024-03-23T12:58:48;5.80;;;5.40;;
37937;SDS011;23763;48.130;11.602;2024-03-23T13:01:19;5.72;;;5.18;;
37937;SDS011;23763;48.130;11.602;2024-03-23T13:03:48;5.38;;;5.07;;
37937;SDS011;23763;48.130;11.602;2024-03-23T13:06:14;6.55;;;5.35;;
37937;SDS011;23763;48.130;11.602;2024-03-23T13:08:41;5.60;;;5.20;;
37937;SDS011;23763;48.130;11.602;2024-03-23T13:11:09;6.03;;;5.60;;
37937;SDS011;23763;48.130;11.602;2024-03-23T13:13:36;6.60;;;6.00;;
37937;SDS011;23763;48.130;11.602;2024-03-23T13:16:02;5.78;;;5.28;;
37937;SDS011;23763;48.130;11.602;2024-03-23T13:18:29;5.88;;;5.20;;
37937;SDS011;23763;48.130;11.602;2024-03-23T13:20:55;5.93;;;5.32;;
37937;SDS011;23763;48.130;11.602;2024-03-23T13:23:21;6.40;;;5.60;;
37937;SDS011;23763;48.130;11.602;2024-03-23T13:25:50;7.53;;;6.13;;
37937;SDS011;23763;48.130;11.602;2024-03-23T13:28:18;6.45;;;5.95;;
37937;SDS011;23763;48.130;11.602;2024-03-23T13:30:54;6.03;;;5.72;;
37937;SDS011;23763;48.130;11.602;2024-03-23T13:33:21;6.25;;;5.55;;
37937;SDS011;23763;48.130;11.602;2024-03-23T13:38:19;6.65;;;6.03;;
37937;SDS011;23763;48.130;11.602;2024-03-23T13:40:52;5.55;;;5.15;;
37937;SDS011;23763;48.130;11.602;2024-03-23T13:43:18;6.03;;;5.53;;
37937;SDS011;23763;48.130;11.602;2024-03-23T13:45:44;6.00;;;5.55;;
37937;SDS011;23763;48.130;11.602;2024-03-23T13:48:11;5.15;;;4.85;;
37937;SDS011;23763;48.130;11.602;2024-03-23T13:50:37;6.13;;;5.63;;
37937;SDS011;23763;48.130;11.602;2024-03-23T13:53:03;9.25;;;5.68;;
37937;SDS011;23763;48.130;11.602;2024-03-23T13:55:29;6.13;;;5.50;;
37937;SDS011;23763;48.130;11.602;2024-03-23T13:57:54;5.70;;;5.18;;
37937;SDS011;23763;48.130;11.602;2024-03-23T14:00:20;6.30;;;5.82;;
37937;SDS011;23763;48.130;11.602;2024-03-23T14:02:46;7.03;;;6.15;;
37937;SDS011;23763;48.130;11.602;2024-03-23T14:05:12;7.45;;;6.75;;
37937;SDS011;23763;48.130;11.602;2024-03-23T14:07:38;6.72;;;6.13;;
37937;SDS011;23763;48.130;11.602;2024-03-23T14:10:04;6.45;;;5.93;;
37937;SDS011;23763;48.130;11.602;2024-03-23T14:12:31;6.60;;;6.03;;
37937;SDS011;23763;48.130;11.602;2024-03-23T14:14:57;7.28;;;6.55;;
37937;SDS011;23763;48.130;11.602;2024-03-23T14:17:23;7.25;;;6.72;;
37937;SDS011;23763;48.130;11.602;2024-03-23T14:19:48;7.30;;;6.70;;
37937;SDS011;23763;48.130;11.602;2024-03-23T14:22:15;6.90;;;6.20;;
37937;SDS011;23763;48.130;11.602;2024-03-23T14:24:44;10.18;;;6.78;;
37937;SDS011;23763;48.130;11.602;2024-03-23T14:27:10;6.30;;;5.80;;
37937;SDS011;23763;48.130;11.602;2024-03-23T14:29:36;7.20;;;6.50;;
37937;SDS011;23763;48.130;11.602;2024-03-23T14:32:01;10.30;;;8.95;;
37937;SDS011;23763;48.130;11.602;2024-03-23T14:34:27;7.82;;;6.47;;
37937;SDS011;23763;48.130;11.602;2024-03-23T14:36:53;11.55;;;6.25;;
37937;SDS011;23763;48.130;11.602;2024-03-23T14:39:22;6.78;;;6.10;;
37937;SDS011;23763;48.130;11.602;2024-03-23T14:41:50;8.73;;;5.97;;
37937;SDS011;23763;48.130;11.602;2024-03-23T14:44:15;7.65;;;6.22;;
37937;SDS011;23763;48.130;11.602;2024-03-23T14:46:41;5.78;;;5.38;;
37937;SDS011;23763;48.130;11.602;2024-03-23T14:49:08;5.90;;;5.40;;
37937;SDS011;23763;48.130;11.602;2024-03-23T14:51:34;5.45;;;5.10;;
37937;SDS011;23763;48.130;11.602;2024-03-23T14:54:00;5.60;;;5.10;;
37937;SDS011;23763;48.130;11.602;2024-03-23T14:56:26;5.53;;;5.03;;
37937;SDS011;23763;48.130;11.602;2024-03-23T14:58:52;5.32;;;4.82;;
37937;SDS011;23763;48.130;11.602;2024-03-23T15:01:18;5.35;;;4.90;;
37937;SDS011;23763;48.130;11.602;2024-03-23T15:03:44;5.55;;;5.07;;
37937;SDS011;23763;48.130;11.602;2024-03-23T15:06:12;5.47;;;5.07;;
37937;SDS011;23763;48.130;11.602;2024-03-23T15:08:38;5.75;;;5.35;;
37937;SDS011;23763;48.130;11.602;2024-03-23T15:11:05;5.50;;;5.10;;
37937;SDS011;23763;48.130;11.602;2024-03-23T15:13:34;5.45;;;4.95;;
37937;SDS011;23763;48.130;11.602;2024-03-23T15:16:00;5.53;;;5.13;;
37937;SDS011;23763;48.130;11.602;2024-03-23T15:18:28;5.85;;;5.55;;
37937;SDS011;23763;48.130;11.602;2024-03-23T15:20:58;6.00;;;5.50;;
37937;SDS011;23763;48.130;11.602;2024-03-23T15:23:30;7.47;;;5.97;;
37937;SDS011;23763;48.130;11.602;2024-03-23T15:25:59;5.82;;;5.50;;
37937;SDS011;23763;48.130;11.602;2024-03-23T15:28:27;6.38;;;5.63;;
37937;SDS011;23763;48.130;11.602;2024-03-23T15:31:03;6.75;;;5.82;;
37937;SDS011;23763;48.130;11.602;2024-03-23T15:33:34;5.88;;;5.22;;
37937;SDS011;23763;48.130;11.602;2024-03-23T15:36:00;6.15;;;5.68;;
37937;SDS011;23763;48.130;11.602;2024-03-23T15:38:27;5.78;;;5.28;;
37937;SDS011;23763;48.130;11.602;2024-03-23T15:40:54;5.63;;;5.10;;
37937;SDS011;23763;48.130;11.602;2024-03-23T15:43:20;6.13;;;5.57;;